Time;durP1;ratioP1;P1;durP2;ratioP2;P2;SDS_P1;SDS_P2;PMS_P1;PMS_P2;Temp;Humidity;BMP_temperature;BMP_pressure;BME280_temperature;BME280_humidity;BME280_pressure;Samples;Min_cycle;Max_cycle;Signal;HPM_P1;HPM_P2
2023/12/14 00:00:31;;;;;;;13.13;2.00;;;;;;;-9.38;70.55;100110.03;4950211;29;21130;-60
2023/12/14 00:02:57;;;;;;;7.63;1.77;;;;;;;-9.46;70.30;100114.66;4935809;29;20134;-61
2023/12/14 00:05:23;;;;;;;15.57;2.13;;;;;;;-9.52;70.46;100103.38;4945611;29;20066;-59
2023/12/14 00:07:49;;;;;;;16.40;2.40;;;;;;;-9.57;71.03;100117.38;4950174;29;20082;-57
2023/12/14 00:10:16;;;;;;;15.38;2.35;;;;;;;-9.57;71.35;100105.69;4929404;29;20829;-58
2023/12/14 00:12:42;;;;;;;14.98;2.58;;;;;;;-9.59;71.66;100113.94;4933059;29;20062;-61
2023/12/14 00:15:08;;;;;;;12.65;3.38;;;;;;;-9.63;72.29;100109.56;4950455;28;20046;-59
2023/12/14 00:17:34;;;;;;;8.13;1.95;;;;;;;-9.51;72.17;100100.09;4919100;29;20039;-62
2023/12/14 00:20:00;;;;;;;13.77;2.38;;;;;;;-9.46;71.91;100098.69;4949940;29;20043;-62
2023/12/14 00:22:26;;;;;;;12.85;2.92;;;;;;;-9.44;72.00;100095.47;4944642;29;20090;-63
2023/12/14 00:24:52;;;;;;;6.65;1.63;;;;;;;-9.42;72.23;100096.41;4947617;29;20127;-63
2023/12/14 00:27:18;;;;;;;12.60;2.20;;;;;;;-9.39;71.54;100103.25;4934550;29;20122;-63
2023/12/14 00:29:44;;;;;;;10.70;2.17;;;;;;;-9.39;71.75;100117.47;4931385;29;20337;-59
2023/12/14 00:32:09;;;;;;;17.70;2.70;;;;;;;-9.40;71.22;100098.13;4916086;29;20051;-62
2023/12/14 00:34:36;;;;;;;17.88;2.10;;;;;;;-9.41;71.40;100097.25;4949162;29;20061;-60
2023/12/14 00:37:02;;;;;;;8.15;2.70;;;;;;;-9.35;70.75;100099.22;4949074;29;20082;-64
2023/12/14 00:39:28;;;;;;;20.80;2.55;;;;;;;-9.34;70.21;100098.44;4948980;29;20427;-64
2023/12/14 00:41:54;;;;;;;21.10;2.70;;;;;;;-9.38;70.48;100094.06;4950280;28;20039;-64
2023/12/14 00:44:20;;;;;;;7.13;2.45;;;;;;;-9.87;70.63;100021.97;4934629;29;20034;-64
2023/12/14 00:46:46;;;;;;;7.82;1.88;;;;;;;-9.30;70.55;100106.22;4948398;29;20483;-65
2023/12/14 00:49:11;;;;;;;11.15;2.65;;;;;;;-9.36;70.39;100100.00;4946743;29;20138;-64
2023/12/14 00:51:37;;;;;;;21.65;2.35;;;;;;;-9.62;69.99;100071.88;4945911;29;20047;-63
2023/12/14 00:54:03;;;;;;;13.20;2.28;;;;;;;-9.36;70.70;100102.53;4926343;29;20039;-64
2023/12/14 00:56:29;;;;;;;5.45;2.22;;;;;;;-9.27;70.06;100098.84;4949413;28;20419;-64
2023/12/14 00:58:55;;;;;;;12.65;2.05;;;;;;;-9.17;70.88;100090.09;4934985;29;20035;-65
2023/12/14 01:01:21;;;;;;;9.90;2.53;;;;;;;-9.04;70.95;100095.81;4952280;28;20031;-65
2023/12/14 01:03:47;;;;;;;11.98;2.65;;;;;;;-9.52;70.20;100008.66;4935276;29;20051;-64
2023/12/14 01:06:13;;;;;;;20.33;2.22;;;;;;;-9.03;70.13;100100.06;4918742;29;20416;-64
2023/12/14 01:08:39;;;;;;;15.43;2.28;;;;;;;-9.08;70.08;100093.94;4948325;29;20049;-64
2023/12/14 01:11:05;;;;;;;10.30;2.47;;;;;;;-9.06;70.14;100083.94;4950082;28;20142;-61
2023/12/14 01:13:31;;;;;;;19.50;2.08;;;;;;;-8.98;70.04;100089.34;4935392;29;20043;-63
2023/12/14 01:15:57;;;;;;;12.65;2.65;;;;;;;-9.03;69.75;100079.03;4930524;29;20039;-64
2023/12/14 01:18:24;;;;;;;29.95;2.60;;;;;;;-8.98;70.09;100089.34;4950816;29;20054;-65
2023/12/14 01:20:50;;;;;;;16.67;2.20;;;;;;;-8.94;69.30;100098.78;4934656;29;20050;-64
2023/12/14 01:23:16;;;;;;;6.18;2.25;;;;;;;-8.97;69.60;100101.16;4917814;29;20507;-63
2023/12/14 01:25:42;;;;;;;4.32;1.27;;;;;;;-9.05;69.58;100100.75;4949300;28;20051;-64
2023/12/14 01:28:08;;;;;;;11.90;2.00;;;;;;;-9.11;69.25;100095.44;4915568;29;20050;-64
2023/12/14 01:30:34;;;;;;;23.40;2.70;;;;;;;-9.15;69.79;100096.94;4948812;29;20070;-65
2023/12/14 01:33:00;;;;;;;8.32;1.85;;;;;;;-9.15;69.51;100093.53;4948636;28;20052;-64
2023/12/14 01:35:26;;;;;;;12.40;2.50;;;;;;;-9.10;69.50;100098.03;4947866;29;20051;-64
2023/12/14 01:37:52;;;;;;;16.20;2.95;;;;;;;-9.06;69.48;100096.53;4948965;29;20190;-64
2023/12/14 01:40:20;;;;;;;15.13;2.20;;;;;;;-9.03;69.05;100096.69;4947630;29;20386;-63
2023/12/14 01:42:45;;;;;;;9.15;2.65;;;;;;;-8.98;68.98;100097.78;4936898;28;20039;-63
2023/12/14 01:45:15;;;;;;;5.78;1.58;;;;;;;-9.12;69.35;100076.94;4913044;29;20055;-64
2023/12/14 01:47:41;;;;;;;9.93;2.42;;;;;;;-9.01;68.54;100097.63;4914351;29;20048;-64
2023/12/14 01:50:07;;;;;;;13.50;2.47;;;;;;;-8.93;69.29;100110.59;4945651;29;20043;-64
2023/12/14 01:52:33;;;;;;;15.75;3.35;;;;;;;-8.98;69.07;100102.81;4947618;28;20067;-63
2023/12/14 01:54:58;;;;;;;9.57;2.13;;;;;;;-9.01;69.37;100098.50;4947173;28;20051;-65
2023/12/14 01:57:25;;;;;;;9.15;2.42;;;;;;;-9.16;69.08;100076.72;4929265;29;20051;-66
2023/12/14 01:59:50;;;;;;;16.52;2.33;;;;;;;-9.08;68.59;100095.59;4934202;29;20047;-63
2023/12/14 02:02:16;;;;;;;31.50;3.38;;;;;;;-9.08;69.00;100095.59;4930696;29;20067;-64
2023/12/14 02:04:42;;;;;;;13.55;2.88;;;;;;;-9.28;69.03;100061.88;4934110;29;20059;-64
2023/12/14 02:07:08;;;;;;;10.63;1.50;;;;;;;-9.12;68.70;100087.03;4948350;29;20054;-65
2023/12/14 02:09:34;;;;;;;11.23;2.63;;;;;;;-9.06;69.42;100086.47;4945908;29;20043;-64
2023/12/14 02:12:00;;;;;;;12.05;3.13;;;;;;;-9.05;68.86;100088.16;4948553;28;20610;-64
2023/12/14 02:14:26;;;;;;;21.70;3.17;;;;;;;-9.03;69.68;100086.59;4909389;29;20053;-66
2023/12/14 02:16:52;;;;;;;13.43;2.70;;;;;;;-9.11;69.13;100071.13;4903689;29;20046;-63
2023/12/14 02:19:18;;;;;;;24.10;3.50;;;;;;;-8.93;69.70;100096.34;4947812;29;20420;-62
2023/12/14 02:21:44;;;;;;;18.92;3.70;;;;;;;-9.14;69.36;100047.44;4941266;29;20129;-62
2023/12/14 02:24:10;;;;;;;10.55;2.42;;;;;;;-9.10;69.43;100046.78;4935985;29;20048;-64
2023/12/14 02:26:35;;;;;;;13.70;2.40;;;;;;;-8.92;69.58;100077.06;4951544;28;20134;-64
2023/12/14 02:29:01;;;;;;;11.55;1.70;;;;;;;-8.89;69.67;100083.09;4950595;29;20050;-65
2023/12/14 02:31:27;;;;;;;9.85;2.35;;;;;;;-8.88;69.94;100081.44;4949405;29;20054;-65
2023/12/14 02:33:53;;;;;;;13.35;2.97;;;;;;;-8.76;70.00;100082.06;4948976;29;20043;-63
2023/12/14 02:36:19;;;;;;;10.00;2.63;;;;;;;-8.65;69.67;100078.41;4933540;29;20574;-65
2023/12/14 02:38:45;;;;;;;10.27;2.53;;;;;;;-8.69;69.06;100084.91;4946869;29;20119;-60
2023/12/14 02:41:11;;;;;;;11.25;2.85;;;;;;;-8.80;69.83;100091.13;4935506;29;20523;-64
2023/12/14 02:43:37;;;;;;;18.33;2.58;;;;;;;-8.87;69.07;100091.59;4946844;28;20134;-65
2023/12/14 02:46:04;;;;;;;21.23;2.92;;;;;;;-8.90;69.49;100085.56;4931754;28;20715;-65
2023/12/14 02:48:30;;;;;;;18.92;2.90;;;;;;;-8.89;69.49;100087.25;4949980;28;20039;-63
2023/12/14 02:50:56;;;;;;;10.30;2.72;;;;;;;-8.72;70.03;100086.44;4918746;29;20071;-63
2023/12/14 02:53:21;;;;;;;15.80;3.50;;;;;;;-8.93;69.73;100061.06;4938925;28;20039;-62
2023/12/14 02:55:47;;;;;;;10.52;2.50;;;;;;;-8.86;68.65;100088.31;4951313;29;20050;-63
2023/12/14 02:58:13;;;;;;;16.45;3.00;;;;;;;-8.81;68.91;100091.03;4919968;28;20459;-63
2023/12/14 03:00:39;;;;;;;17.23;2.53;;;;;;;-8.88;69.03;100094.03;4917427;29;20098;-64
2023/12/14 03:03:05;;;;;;;11.45;2.15;;;;;;;-8.98;68.91;100095.25;4949303;29;20043;-63
2023/12/14 03:05:31;;;;;;;7.72;2.20;;;;;;;-8.84;69.11;100106.84;4949866;28;20403;-62
2023/12/14 03:07:57;;;;;;;20.08;2.67;;;;;;;-8.91;69.29;100097.28;4937672;29;20043;-62
2023/12/14 03:10:23;;;;;;;10.55;2.03;;;;;;;-8.93;69.63;100091.31;4948737;29;20051;-63
2023/12/14 03:12:48;;;;;;;17.15;2.67;;;;;;;-8.97;69.60;100093.59;4947685;29;20098;-63
2023/12/14 03:15:18;;;;;;;12.27;2.80;;;;;;;-9.01;68.99;100093.47;4919042;29;20289;-63
2023/12/14 03:17:44;;;;;;;14.35;2.53;;;;;;;-8.98;69.08;100102.81;4934707;29;20170;-63
2023/12/14 03:20:10;;;;;;;14.27;3.03;;;;;;;-9.15;69.12;100084.34;4939132;29;20138;-61
2023/12/14 03:22:36;;;;;;;12.80;2.25;;;;;;;-9.14;69.50;100090.25;4906822;29;20527;-62
2023/12/14 03:25:02;;;;;;;12.30;2.53;;;;;;;-9.34;69.66;100054.00;4933697;29;20586;-62
2023/12/14 03:27:32;;;;;;;4.70;1.95;;;;;;;-9.54;69.91;100032.03;4937776;29;20511;-63
2023/12/14 03:29:58;;;;;;;24.85;2.85;;;;;;;-9.19;70.18;100102.59;4948588;29;20054;-61
2023/12/14 03:32:24;;;;;;;13.57;2.85;;;;;;;-9.17;69.99;100092.63;4938240;29;20054;-61
2023/12/14 03:34:50;;;;;;;11.55;3.17;;;;;;;-9.15;70.18;100098.56;4949905;29;20066;-61
2023/12/14 03:37:16;;;;;;;19.42;3.08;;;;;;;-9.42;70.27;100041.03;4919060;29;20467;-61
2023/12/14 03:39:42;;;;;;;28.35;4.00;;;;;;;-9.30;69.67;100038.25;4951404;29;20609;-61
2023/12/14 03:42:08;;;;;;;12.75;2.28;;;;;;;-8.96;69.42;100082.75;4950928;29;20051;-61
2023/12/14 03:44:34;;;;;;;9.10;2.65;;;;;;;-8.99;69.54;100096.03;4951194;28;20046;-59
2023/12/14 03:47:00;;;;;;;12.10;2.35;;;;;;;-9.03;69.39;100084.94;4938054;29;20058;-61
2023/12/14 03:49:26;;;;;;;20.15;2.50;;;;;;;-8.84;70.01;100091.75;4934349;29;20056;-62
2023/12/14 03:51:52;;;;;;;18.10;3.55;;;;;;;-8.82;69.09;100085.13;4950398;29;20078;-60
2023/12/14 03:54:18;;;;;;;12.80;3.00;;;;;;;-8.85;69.48;100096.72;4933545;29;20118;-62
2023/12/14 03:56:43;;;;;;;12.52;2.70;;;;;;;-8.95;69.43;100087.88;4918347;29;20706;-62
2023/12/14 03:59:09;;;;;;;22.92;3.05;;;;;;;-8.96;69.40;100086.13;4950209;28;20798;-61
2023/12/14 04:01:38;;;;;;;8.88;2.70;;;;;;;-8.96;69.87;100081.09;4921777;29;20047;-63
2023/12/14 04:04:04;;;;;;;7.35;1.92;;;;;;;-8.83;69.23;100085.06;4950182;29;20035;-61
2023/12/14 04:06:30;;;;;;;21.90;2.88;;;;;;;-8.86;69.19;100083.25;4948888;29;20546;-62
2023/12/14 04:08:56;;;;;;;14.98;2.08;;;;;;;-8.83;68.78;100085.91;4935766;29;20035;-61
2023/12/14 04:11:22;;;;;;;11.63;2.60;;;;;;;-8.94;69.48;100041.72;4936739;29;20179;-60
2023/12/14 04:13:50;;;;;;;18.17;3.42;;;;;;;-9.14;69.01;100012.19;4893517;29;20054;-62
2023/12/14 04:16:20;;;;;;;6.35;2.50;;;;;;;-8.71;69.25;100073.06;4948137;29;20046;-61
2023/12/14 04:18:45;;;;;;;18.98;3.47;;;;;;;-8.74;69.10;100066.19;4937582;29;20067;-61
2023/12/14 04:21:11;;;;;;;13.10;2.53;;;;;;;-8.69;69.31;100079.03;4950522;29;20059;-62
2023/12/14 04:23:41;;;;;;;21.58;3.05;;;;;;;-8.67;68.57;100064.84;4936453;29;20098;-62
2023/12/14 04:26:09;;;;;;;16.38;2.83;;;;;;;-8.63;68.70;100076.78;4936500;29;20035;-62
2023/12/14 04:28:36;;;;;;;15.68;2.60;;;;;;;-8.65;68.31;100074.22;4936622;29;20065;-62
2023/12/14 04:31:05;;;;;;;17.83;3.75;;;;;;;-8.65;68.80;100069.19;4924407;29;20067;-62
2023/12/14 04:33:31;;;;;;;13.95;3.90;;;;;;;-8.62;68.28;100081.03;4948976;29;20050;-61
2023/12/14 04:35:58;;;;;;;9.55;2.38;;;;;;;-9.05;68.24;100005.94;4932484;29;20050;-61
2023/12/14 04:38:24;;;;;;;23.70;2.83;;;;;;;-8.60;68.00;100072.78;4949642;29;20043;-60
2023/12/14 04:40:50;;;;;;;11.88;2.17;;;;;;;-8.65;68.25;100083.44;4923027;29;20067;-60
2023/12/14 04:43:16;;;;;;;15.77;3.42;;;;;;;-8.73;68.92;100083.06;4948850;29;20051;-60
2023/12/14 04:45:41;;;;;;;13.25;2.63;;;;;;;-8.77;68.90;100080.31;4932974;29;20046;-61
2023/12/14 04:48:08;;;;;;;26.33;3.28;;;;;;;-8.93;69.70;100080.34;4948580;28;20129;-60
2023/12/14 04:50:34;;;;;;;8.73;2.58;;;;;;;-8.92;69.73;100095.56;4943107;29;20047;-55
2023/12/14 04:53:00;;;;;;;18.33;3.33;;;;;;;-8.96;69.77;100081.09;4905204;29;20079;-66
2023/12/14 04:55:26;;;;;;;14.35;2.88;;;;;;;-8.97;69.79;100081.00;4948840;29;20501;-60
2023/12/14 04:57:51;;;;;;;30.15;3.00;;;;;;;-9.05;69.79;100084.00;4936310;29;20134;-56
2023/12/14 05:00:17;;;;;;;14.10;2.22;;;;;;;-9.02;70.75;100078.25;4948540;29;20138;-58
2023/12/14 05:02:47;;;;;;;12.60;2.60;;;;;;;-8.86;71.09;100092.47;4935136;29;20427;-57
2023/12/14 05:05:14;;;;;;;12.93;2.35;;;;;;;-8.96;70.25;100081.09;4948442;29;20146;-58
2023/12/14 05:07:39;;;;;;;19.02;2.58;;;;;;;-8.98;69.71;100079.28;4946699;28;20203;-54
2023/12/14 05:10:06;;;;;;;19.25;2.72;;;;;;;-9.08;69.85;100046.09;4930058;29;20507;-58
2023/12/14 05:12:32;;;;;;;12.10;2.08;;;;;;;-8.84;69.45;100080.78;4947125;29;20189;-60
2023/12/14 05:14:58;;;;;;;19.23;2.45;;;;;;;-8.84;69.58;100078.28;4929871;29;20050;-60
2023/12/14 05:17:24;;;;;;;18.60;3.50;;;;;;;-9.06;69.36;100064.66;4947271;29;20089;-57
2023/12/14 05:19:50;;;;;;;10.65;2.22;;;;;;;-8.83;69.88;100090.97;4946934;29;20043;-59
2023/12/14 05:22:16;;;;;;;10.45;2.83;;;;;;;-9.25;69.21;100023.38;4948738;29;20061;-57
2023/12/14 05:24:47;;;;;;;8.90;2.17;;;;;;;-8.82;69.54;100087.66;4951267;28;20042;-56
2023/12/14 05:27:12;;;;;;;16.65;3.33;;;;;;;-8.77;69.67;100082.84;4950105;29;20054;-59
2023/12/14 05:29:38;;;;;;;24.00;2.35;;;;;;;-8.70;68.77;100090.78;4950412;29;20043;-61
2023/12/14 05:32:04;;;;;;;16.08;2.55;;;;;;;-8.72;68.39;100099.91;4937886;29;20039;-59
2023/12/14 05:34:30;;;;;;;8.93;2.45;;;;;;;-8.86;68.77;100095.84;4952624;29;20078;-61
2023/12/14 05:36:56;;;;;;;19.98;2.97;;;;;;;-8.82;68.41;100091.81;4934417;29;20115;-58
2023/12/14 05:39:22;;;;;;;26.27;3.60;;;;;;;-8.86;68.36;100118.53;4950410;29;20061;-58
2023/12/14 05:41:48;;;;;;;15.30;2.67;;;;;;;-8.91;68.90;100093.91;4949833;29;20132;-58
2023/12/14 05:44:14;;;;;;;14.05;2.00;;;;;;;-8.91;68.86;100089.72;4951142;28;20134;-59
2023/12/14 05:46:40;;;;;;;19.95;3.50;;;;;;;-8.84;68.99;100100.94;4950957;28;20098;-57
2023/12/14 05:49:06;;;;;;;18.88;3.20;;;;;;;-8.98;68.49;100065.03;4933710;29;20065;-58
2023/12/14 05:51:33;;;;;;;9.02;2.88;;;;;;;-8.79;68.40;100092.81;4949696;29;20571;-59
2023/12/14 05:53:59;;;;;;;17.70;2.67;;;;;;;-8.69;68.68;100097.53;4950805;29;20046;-59
2023/12/14 05:56:26;;;;;;;19.90;4.40;;;;;;;-8.65;68.27;100091.00;4949495;29;20047;-60
2023/12/14 05:58:52;;;;;;;12.38;2.60;;;;;;;-8.90;67.98;100057.84;4949798;29;20054;-58
2023/12/14 06:01:19;;;;;;;9.35;2.55;;;;;;;-8.98;67.87;100046.53;4950509;28;20146;-58
2023/12/14 06:03:46;;;;;;;14.95;2.80;;;;;;;-8.73;68.07;100080.53;4950686;29;20130;-59
2023/12/14 06:06:13;;;;;;;7.22;1.80;;;;;;;-8.65;68.28;100094.38;4902006;29;20058;-59
2023/12/14 06:08:39;;;;;;;11.70;1.95;;;;;;;-8.64;67.89;100106.19;4917403;29;20070;-58
2023/12/14 06:11:07;;;;;;;17.00;2.92;;;;;;;-8.91;68.17;100049.44;4914267;29;20552;-58
2023/12/14 06:13:33;;;;;;;12.43;2.25;;;;;;;-8.65;68.04;100096.91;4949151;29;20050;-58
2023/12/14 06:16:00;;;;;;;14.50;2.55;;;;;;;-8.65;67.67;100099.41;4933798;29;20091;-60
2023/12/14 06:18:26;;;;;;;9.43;2.78;;;;;;;-8.60;67.45;100103.03;4950677;28;20459;-59
2023/12/14 06:20:52;;;;;;;9.95;2.50;;;;;;;-8.75;67.61;100053.56;4954076;29;20137;-60
2023/12/14 06:23:18;;;;;;;15.80;2.63;;;;;;;-8.33;67.65;100100.09;4936413;29;20047;-59
2023/12/14 06:25:44;;;;;;;9.27;2.10;;;;;;;-8.41;67.59;100109.78;4936752;29;20098;-59
2023/12/14 06:28:09;;;;;;;8.77;1.92;;;;;;;-8.54;67.96;100084.81;4936764;29;20040;-55
2023/12/14 06:30:35;;;;;;;13.13;3.00;;;;;;;-8.45;67.86;100102.00;4936620;29;20054;-61
2023/12/14 06:33:02;;;;;;;17.85;2.42;;;;;;;-8.51;67.98;100095.03;4954007;29;20523;-60
2023/12/14 06:35:28;;;;;;;16.33;3.08;;;;;;;-8.42;67.77;100099.63;4936273;29;20418;-58
2023/12/14 06:37:53;;;;;;;20.05;2.42;;;;;;;-8.61;67.65;100053.41;4965269;28;20038;-59
2023/12/14 06:40:19;;;;;;;13.15;2.28;;;;;;;-8.37;66.83;100104.09;4973194;28;20121;-58
2023/12/14 06:42:45;;;;;;;14.13;2.78;;;;;;;-8.37;67.14;100106.63;4972911;28;20050;-61
2023/12/14 06:45:11;;;;;;;13.38;2.35;;;;;;;-8.21;67.76;100103.13;4955884;28;20158;-60
2023/12/14 06:47:37;;;;;;;7.65;2.25;;;;;;;-8.10;67.06;100101.97;4955501;28;20434;-57
2023/12/14 06:50:04;;;;;;;17.25;2.97;;;;;;;-8.17;67.45;100103.34;4955703;28;20043;-59
2023/12/14 06:52:30;;;;;;;13.10;2.65;;;;;;;-8.11;67.42;100110.31;4955526;28;20509;-59
2023/12/14 06:54:56;;;;;;;16.52;2.55;;;;;;;-8.64;67.39;100012.97;4972710;28;20039;-60
2023/12/14 06:57:22;;;;;;;13.82;2.92;;;;;;;-8.06;67.18;100103.00;4939527;28;20541;-58
2023/12/14 06:59:48;;;;;;;22.90;2.92;;;;;;;-8.11;67.23;100106.97;4972674;28;20073;-61
2023/12/14 07:02:14;;;;;;;20.65;2.95;;;;;;;-8.11;66.68;100112.84;4922489;29;20077;-57
2023/12/14 07:04:40;;;;;;;21.88;3.50;;;;;;;-8.22;67.02;100114.03;4936191;29;20051;-60
2023/12/14 07:07:06;;;;;;;10.95;2.53;;;;;;;-8.22;67.38;100101.41;4953247;29;20039;-60
2023/12/14 07:09:31;;;;;;;15.43;3.00;;;;;;;-8.06;67.03;100119.00;4935924;29;20058;-60
2023/12/14 07:11:57;;;;;;;14.32;4.03;;;;;;;-7.91;67.27;100108.72;4953107;29;20086;-60
2023/12/14 07:14:23;;;;;;;16.65;3.38;;;;;;;-8.30;67.38;100048.13;4952920;29;20039;-56
2023/12/14 07:16:49;;;;;;;10.50;2.72;;;;;;;-8.01;67.36;100066.22;4952772;29;20035;-58
2023/12/14 07:19:15;;;;;;;12.48;2.75;;;;;;;-7.77;66.65;100102.63;4952983;29;20035;-60
2023/12/14 07:21:41;;;;;;;11.73;3.42;;;;;;;-7.86;66.92;100113.19;4935750;29;20071;-57
2023/12/14 07:24:07;;;;;;;16.30;3.78;;;;;;;-7.83;66.66;100104.88;4952602;29;20039;-60
2023/12/14 07:26:32;;;;;;;14.52;3.47;;;;;;;-7.89;66.90;100112.16;4935544;29;20130;-57
2023/12/14 07:28:58;;;;;;;8.40;2.45;;;;;;;-7.99;66.79;100115.06;4953079;29;20086;-59
2023/12/14 07:31:25;;;;;;;21.90;2.88;;;;;;;-8.53;67.12;100033.63;4934534;29;20039;-62
2023/12/14 07:33:50;;;;;;;14.25;3.65;;;;;;;-8.19;67.07;100127.63;4952680;29;20050;-60
2023/12/14 07:36:16;;;;;;;21.83;2.90;;;;;;;-8.24;67.74;100126.56;4953037;29;20427;-55
2023/12/14 07:38:42;;;;;;;25.20;3.05;;;;;;;-8.08;67.65;100127.25;4904579;29;20038;-59
2023/12/14 07:41:08;;;;;;;21.33;3.03;;;;;;;-8.06;66.89;100128.22;4919513;29;20046;-55
2023/12/14 07:43:34;;;;;;;19.88;3.95;;;;;;;-8.25;67.70;100126.47;4935269;29;20049;-59
2023/12/14 07:46:00;;;;;;;15.05;2.78;;;;;;;-8.37;67.77;100119.22;4952463;29;20440;-59
2023/12/14 07:48:26;;;;;;;18.00;2.97;;;;;;;-8.40;67.26;100126.66;4934704;29;20110;-58
2023/12/14 07:50:52;;;;;;;19.77;3.25;;;;;;;-8.40;67.82;100138.38;4952112;29;20090;-59
2023/12/14 07:53:18;;;;;;;8.10;2.22;;;;;;;-8.42;67.87;100155.09;4919669;29;20051;-58
2023/12/14 07:55:44;;;;;;;16.50;2.50;;;;;;;-8.51;68.33;100137.88;4935378;29;20069;-62
2023/12/14 07:58:09;;;;;;;10.73;2.42;;;;;;;-9.05;67.61;100062.97;4934924;29;20039;-57
2023/12/14 08:00:35;;;;;;;16.92;3.03;;;;;;;-8.54;68.65;100152.00;4951947;29;20043;-59
2023/12/14 08:03:01;;;;;;;15.48;2.35;;;;;;;-8.55;68.44;100140.19;4934674;29;20092;-60
2023/12/14 08:05:27;;;;;;;22.27;4.47;;;;;;;-8.58;68.24;100156.00;4952091;29;20050;-59
2023/12/14 08:07:53;;;;;;;23.02;3.88;;;;;;;-8.59;68.09;100144.22;4952192;29;20050;-59
2023/12/14 08:10:19;;;;;;;12.27;2.85;;;;;;;-8.54;67.81;100149.47;4934947;29;20047;-58
2023/12/14 08:12:47;;;;;;;19.33;2.70;;;;;;;-8.76;68.52;100105.59;4952230;29;20058;-59
2023/12/14 08:15:13;;;;;;;17.77;2.47;;;;;;;-8.44;68.15;100155.03;4934587;29;20480;-59
2023/12/14 08:17:39;;;;;;;18.65;2.97;;;;;;;-8.52;67.98;100148.75;4951971;29;20043;-59
2023/12/14 08:20:08;;;;;;;23.60;4.68;;;;;;;-8.53;68.20;100128.53;4952188;29;20633;-58
2023/12/14 08:22:35;;;;;;;12.80;2.22;;;;;;;-8.37;68.34;100146.13;4934581;29;20043;-58
2023/12/14 08:25:03;;;;;;;21.27;2.78;;;;;;;-8.16;68.76;100140.38;4934117;29;20051;-58
2023/12/14 08:27:30;;;;;;;29.20;3.67;;;;;;;-8.32;67.90;100125.34;4951501;29;20046;-59
2023/12/14 08:29:56;;;;;;;16.63;4.43;;;;;;;-8.17;68.16;100132.75;4951438;29;20039;-62
2023/12/14 08:32:22;;;;;;;10.45;2.75;;;;;;;-8.01;68.28;100135.19;4934136;29;20051;-59
2023/12/14 08:34:49;;;;;;;25.95;3.33;;;;;;;-7.90;68.10;100131.47;4934343;29;20138;-58
2023/12/14 08:37:15;;;;;;;6.47;2.33;;;;;;;-7.93;67.40;100145.63;4918444;29;20046;-59
2023/12/14 08:39:41;;;;;;;11.80;2.83;;;;;;;-8.03;68.22;100139.28;4951449;29;20047;-56
2023/12/14 08:42:07;;;;;;;15.63;3.00;;;;;;;-8.67;68.15;100050.59;4951243;28;20039;-62
2023/12/14 08:44:33;;;;;;;20.55;4.13;;;;;;;-8.57;68.27;100052.75;4934156;29;20178;-55
2023/12/14 08:46:58;;;;;;;7.97;2.88;;;;;;;-8.10;68.67;100143.97;4951335;29;20134;-61
2023/12/14 08:49:24;;;;;;;18.80;3.08;;;;;;;-8.30;68.32;100100.22;4951196;29;20581;-60
2023/12/14 08:51:50;;;;;;;18.65;3.63;;;;;;;-8.12;68.78;100138.88;4951432;29;20049;-54
2023/12/14 08:54:17;;;;;;;25.00;3.22;;;;;;;-7.95;68.32;100135.44;4951827;29;20050;-60
2023/12/14 08:56:43;;;;;;;13.48;2.47;;;;;;;-7.93;68.71;100135.53;4951179;29;20125;-60
2023/12/14 08:59:09;;;;;;;16.02;2.70;;;;;;;-7.89;68.41;100137.41;4951283;29;20095;-59
2023/12/14 09:01:35;;;;;;;16.42;3.83;;;;;;;-7.73;68.23;100143.22;4950866;29;20031;-60
2023/12/14 09:04:01;;;;;;;8.43;3.00;;;;;;;-7.57;68.02;100138.84;4934332;29;20049;-59
2023/12/14 09:06:27;;;;;;;27.58;3.80;;;;;;;-7.48;67.69;100140.13;4951129;29;20427;-59
2023/12/14 09:08:53;;;;;;;21.45;2.67;;;;;;;-7.80;67.46;100105.88;4953168;29;20537;-56
2023/12/14 09:11:19;;;;;;;17.48;3.85;;;;;;;-7.59;67.87;100121.13;4953690;29;20467;-56
2023/12/14 09:13:45;;;;;;;33.95;4.28;;;;;;;-7.56;67.70;100121.25;4951091;29;20039;-57
2023/12/14 09:16:12;;;;;;;40.15;3.80;;;;;;;-7.84;67.78;100071.22;4933496;29;20047;-58
2023/12/14 09:18:38;;;;;;;11.88;3.60;;;;;;;-7.54;67.47;100112.09;4917883;29;20424;-60
2023/12/14 09:21:04;;;;;;;20.17;4.00;;;;;;;-7.55;67.23;100107.84;4950706;29;20536;-57
2023/12/14 09:23:32;;;;;;;11.00;2.60;;;;;;;-7.52;67.87;100107.09;4917681;29;20035;-59
2023/12/14 09:25:58;;;;;;;19.75;4.53;;;;;;;-7.51;67.37;100112.22;4950524;29;20133;-62
2023/12/14 09:28:26;;;;;;;21.42;3.22;;;;;;;-7.77;67.36;100070.69;4917714;29;20039;-60
2023/12/14 09:30:52;;;;;;;25.20;4.03;;;;;;;-7.61;67.41;100077.28;4917682;29;20579;-61
2023/12/14 09:33:18;;;;;;;15.23;2.85;;;;;;;-7.30;67.92;100104.72;4901963;29;20035;-60
2023/12/14 09:35:44;;;;;;;16.98;3.53;;;;;;;-7.03;67.65;100113.47;4917584;29;20050;-59
2023/12/14 09:38:10;;;;;;;20.83;3.88;;;;;;;-7.09;67.58;100113.22;4917688;29;20121;-59
2023/12/14 09:40:36;;;;;;;20.58;5.18;;;;;;;-7.00;67.98;100127.88;4950557;29;20106;-58
2023/12/14 09:43:03;;;;;;;29.73;4.25;;;;;;;-7.30;67.22;100097.16;4950433;29;20566;-58
2023/12/14 09:45:29;;;;;;;15.85;3.92;;;;;;;-7.22;67.72;100140.44;4950520;29;20047;-57
2023/12/14 09:48:00;;;;;;;30.60;4.30;;;;;;;-7.15;68.04;100147.44;4933339;29;20085;-59
2023/12/14 09:50:27;;;;;;;16.48;2.50;;;;;;;-7.54;68.00;100051.53;4932795;29;20079;-60
2023/12/14 09:52:52;;;;;;;18.75;3.28;;;;;;;-7.23;67.85;100124.41;4933695;28;20082;-62
2023/12/14 09:55:18;;;;;;;18.70;3.70;;;;;;;-7.19;67.81;100140.53;4956239;28;20039;-61
2023/12/14 09:57:45;;;;;;;27.90;4.75;;;;;;;-7.11;68.23;100139.19;4939622;29;20031;-60
2023/12/14 10:00:13;;;;;;;23.23;3.72;;;;;;;-7.49;67.83;100057.63;4956754;28;20065;-61
2023/12/14 10:02:41;;;;;;;14.15;3.20;;;;;;;-6.83;68.18;100139.56;4939563;29;20546;-59
2023/12/14 10:05:10;;;;;;;20.33;4.10;;;;;;;-6.62;67.71;100142.13;4956574;29;20058;-58
2023/12/14 10:07:45;;;;;;;16.55;3.15;;;;;;;-6.60;67.98;100155.72;4939389;29;20062;-60
2023/12/14 10:10:13;;;;;;;23.23;4.68;;;;;;;-6.80;67.74;100141.38;4956816;29;20051;-60
2023/12/14 10:12:53;;;;;;;21.20;3.92;;;;;;;-6.99;67.48;100106.88;4923133;28;20059;-63
2023/12/14 10:15:19;;;;;;;20.75;4.80;;;;;;;-6.76;67.24;100148.28;4956564;28;20098;-59
2023/12/14 10:17:53;;;;;;;18.58;3.03;;;;;;;-7.08;66.86;100144.41;4939146;29;20070;-60
2023/12/14 10:20:23;;;;;;;23.25;2.95;;;;;;;-6.99;67.48;100132.16;4940504;29;20047;-57
2023/12/14 10:22:49;;;;;;;23.42;3.38;;;;;;;-7.06;67.25;100131.00;4956349;28;20109;-56
2023/12/14 10:25:18;;;;;;;10.50;3.00;;;;;;;-6.97;67.55;100123.84;4939368;29;20093;-59
2023/12/14 10:27:46;;;;;;;17.17;2.97;;;;;;;-7.07;66.84;100113.28;4956216;28;20039;-58
2023/12/14 10:30:13;;;;;;;15.38;2.45;;;;;;;-7.16;66.92;100125.50;4956405;28;20427;-57
2023/12/14 10:32:40;;;;;;;12.25;2.85;;;;;;;-7.28;67.01;100125.88;4938088;29;20519;-60
2023/12/14 10:35:06;;;;;;;29.58;3.20;;;;;;;-7.58;66.66;100091.69;4956196;28;20834;-58
2023/12/14 10:37:37;;;;;;;18.60;3.53;;;;;;;-7.44;66.61;100136.97;4956480;29;20039;-60
2023/12/14 10:40:07;;;;;;;21.80;3.28;;;;;;;-7.52;67.04;100128.16;4956381;28;20404;-56
2023/12/14 10:42:35;;;;;;;17.95;3.42;;;;;;;-7.50;66.97;100124.06;4956364;29;20043;-57
2023/12/14 10:45:02;;;;;;;15.48;4.20;;;;;;;-7.44;66.86;100114.25;4956663;29;20047;-57
2023/12/14 10:47:31;;;;;;;20.00;3.97;;;;;;;-7.36;66.84;100104.44;4956303;29;20039;-58
2023/12/14 10:49:58;;;;;;;20.52;3.70;;;;;;;-7.11;67.15;100098.78;4939351;29;20043;-56
2023/12/14 10:52:24;;;;;;;12.23;2.97;;;;;;;-7.07;66.82;100095.59;4939317;29;20723;-59
2023/12/14 10:55:02;;;;;;;6.88;2.78;;;;;;;-7.08;66.59;100097.25;4939369;29;20053;-56
2023/12/14 10:57:30;;;;;;;20.00;4.10;;;;;;;-7.13;66.50;100088.63;4923830;28;20130;-60
2023/12/14 11:00:00;;;;;;;19.75;2.92;;;;;;;-7.06;66.46;100085.53;4923250;29;20138;-58
2023/12/14 11:02:25;;;;;;;31.98;3.88;;;;;;;-6.95;66.44;100074.22;4922410;29;20046;-57
2023/12/14 11:05:08;;;;;;;23.20;3.75;;;;;;;-6.71;67.00;100081.09;4955636;28;20098;-59
2023/12/14 11:07:52;;;;;;;15.80;3.38;;;;;;;-6.65;67.05;100078.81;4953233;28;20043;-59
2023/12/14 11:10:24;;;;;;;19.60;3.50;;;;;;;-6.59;66.72;100079.91;4952456;28;20051;-60
2023/12/14 11:13:01;;;;;;;17.33;2.88;;;;;;;-6.58;66.98;100068.13;4951714;29;20081;-58
2023/12/14 11:15:29;;;;;;;17.02;4.55;;;;;;;-6.63;66.75;100057.81;4953014;28;20047;-57